createdAt,value
2018-09-18T00:01:49.044Z,4.00
2018-09-18T00:04:17.484Z,3.72
2018-09-18T00:06:45.976Z,3.43
2018-09-18T00:09:14.389Z,4.20
2018-09-18T00:11:43.181Z,4.17
2018-09-18T00:14:12.260Z,3.77
2018-09-18T00:16:40.744Z,3.77
2018-09-18T00:19:09.485Z,3.90
2018-09-18T00:21:37.880Z,3.57
2018-09-18T00:24:06.798Z,3.70
2018-09-18T00:26:35.263Z,3.37
2018-09-18T00:29:03.763Z,3.50
2018-09-18T00:31:32.171Z,3.00
2018-09-18T00:34:00.734Z,3.63
2018-09-18T00:36:29.159Z,2.97
2018-09-18T00:38:58.144Z,3.63
2018-09-18T00:41:27.286Z,3.20
2018-09-18T00:43:55.730Z,3.33
2018-09-18T00:46:24.276Z,3.13
2018-09-18T00:48:52.858Z,3.27
2018-09-18T00:51:21.450Z,3.13
2018-09-18T00:53:50.581Z,3.20
2018-09-18T00:56:19.728Z,3.27
2018-09-18T00:58:48.278Z,3.15
2018-09-18T01:01:16.716Z,3.63
2018-09-18T01:03:45.141Z,2.87
2018-09-18T01:06:13.603Z,2.70
2018-09-18T01:08:42.200Z,3.60
2018-09-18T01:11:10.928Z,3.50
2018-09-18T01:13:39.498Z,3.00
2018-09-18T01:16:08.104Z,3.53
2018-09-18T01:18:40.259Z,3.10
2018-09-18T01:21:10.153Z,3.33
2018-09-18T01:23:38.751Z,3.03
2018-09-18T01:26:07.332Z,3.37
2018-09-18T01:28:36.791Z,3.17
2018-09-18T01:31:05.680Z,3.20
2018-09-18T01:33:34.471Z,3.17
2018-09-18T01:36:03.040Z,3.63
2018-09-18T01:38:31.969Z,3.27
2018-09-18T01:41:00.674Z,3.10
2018-09-18T01:43:29.677Z,3.73
2018-09-18T01:45:58.172Z,3.50
2018-09-18T01:48:26.724Z,3.10
2018-09-18T01:50:55.913Z,3.77
2018-09-18T01:53:24.376Z,3.70
2018-09-18T01:55:52.793Z,3.60
2018-09-18T01:58:21.292Z,4.27
2018-09-18T02:00:50.120Z,3.77
2018-09-18T02:03:18.777Z,4.00
2018-09-18T02:05:47.366Z,4.27
2018-09-18T02:08:15.966Z,4.00
2018-09-18T02:10:44.406Z,4.00
2018-09-18T02:13:12.964Z,4.00
2018-09-18T02:15:41.413Z,4.07
2018-09-18T02:18:09.856Z,3.93
2018-09-18T02:20:38.411Z,4.40
2018-09-18T02:23:07.447Z,4.10
2018-09-18T02:25:35.879Z,4.53
2018-09-18T02:28:04.361Z,4.30
2018-09-18T02:30:32.820Z,3.90
2018-09-18T02:33:01.454Z,3.90
2018-09-18T02:35:30.111Z,3.67
2018-09-18T02:37:58.501Z,4.30
2018-09-18T02:40:27.045Z,4.57
2018-09-18T02:42:56.078Z,4.17
2018-09-18T02:45:24.573Z,4.25
2018-09-18T02:47:53.008Z,4.50
2018-09-18T02:50:21.550Z,4.50
2018-09-18T02:52:49.940Z,4.07
2018-09-18T02:55:18.495Z,4.37
2018-09-18T02:57:47.043Z,4.30
2018-09-18T03:00:15.773Z,3.80
2018-09-18T03:02:44.187Z,4.53
2018-09-18T03:05:12.778Z,4.77
2018-09-18T03:07:41.308Z,4.10
2018-09-18T03:10:09.828Z,4.23
2018-09-18T03:12:38.261Z,4.27
2018-09-18T03:15:09.902Z,3.87
2018-09-18T03:17:38.464Z,3.93
2018-09-18T03:20:06.920Z,3.80
2018-09-18T03:22:35.408Z,4.13
2018-09-18T03:25:04.287Z,4.10
2018-09-18T03:27:33.021Z,4.30
2018-09-18T03:30:01.414Z,3.80
2018-09-18T03:32:30.025Z,4.40
2018-09-18T03:34:58.542Z,4.20
2018-09-18T03:37:27.189Z,3.73
2018-09-18T03:39:55.604Z,4.00
2018-09-18T03:42:24.002Z,3.80
2018-09-18T03:44:52.551Z,4.17
2018-09-18T03:47:21.763Z,4.03
2018-09-18T03:49:52.290Z,4.27
2018-09-18T03:52:20.714Z,4.30
2018-09-18T03:54:49.355Z,4.70
2018-09-18T03:57:18.300Z,4.73
2018-09-18T03:59:46.915Z,4.53
2018-09-18T04:02:16.050Z,4.60
2018-09-18T04:04:44.717Z,4.57
2018-09-18T04:07:13.267Z,5.10
2018-09-18T04:09:41.752Z,5.33
2018-09-18T04:12:10.195Z,6.37
2018-09-18T04:14:38.630Z,5.37
2018-09-18T04:17:07.204Z,5.77
2018-09-18T04:19:35.772Z,5.37
2018-09-18T04:22:04.222Z,5.33
2018-09-18T04:24:32.649Z,5.93
2018-09-18T04:27:01.129Z,4.80
2018-09-18T04:29:29.568Z,5.50
2018-09-18T04:31:57.985Z,4.87
2018-09-18T04:34:26.562Z,4.53
2018-09-18T04:36:55.045Z,4.40
2018-09-18T04:39:23.636Z,4.60
2018-09-18T04:41:52.121Z,4.53
2018-09-18T04:44:20.585Z,4.87
2018-09-18T04:46:49.576Z,5.00
2018-09-18T04:49:18.071Z,4.60
2018-09-18T04:51:46.592Z,4.83
2018-09-18T04:54:21.737Z,4.90
2018-09-18T04:56:50.308Z,4.03
2018-09-18T04:59:18.830Z,5.23
2018-09-18T05:01:47.292Z,4.80
2018-09-18T05:04:15.986Z,4.43
2018-09-18T05:06:44.436Z,5.00
2018-09-18T05:09:13.867Z,4.57
2018-09-18T05:11:42.310Z,4.67
2018-09-18T05:14:10.744Z,4.80
2018-09-18T05:16:39.153Z,4.00
2018-09-18T05:19:08.799Z,4.53
2018-09-18T05:21:37.436Z,4.67
2018-09-18T05:24:05.837Z,4.80
2018-09-18T05:26:35.412Z,4.70
2018-09-18T05:29:03.925Z,4.77
2018-09-18T05:31:32.524Z,5.00
2018-09-18T05:34:02.096Z,5.17
2018-09-18T05:36:30.825Z,4.70
2018-09-18T05:39:14.041Z,4.73
2018-09-18T05:41:42.565Z,4.83
2018-09-18T05:44:11.172Z,4.70
2018-09-18T05:46:39.604Z,4.80
2018-09-18T05:49:08.088Z,5.10
2018-09-18T05:51:36.704Z,5.10
2018-09-18T05:54:05.273Z,4.50
2018-09-18T05:56:33.843Z,5.20
2018-09-18T05:59:02.409Z,5.23
2018-09-18T06:01:30.968Z,4.80
2018-09-18T06:03:59.453Z,5.77
2018-09-18T06:06:28.221Z,4.90
2018-09-18T06:08:56.722Z,5.20
2018-09-18T06:11:25.460Z,4.63
2018-09-18T06:13:54.056Z,4.40
2018-09-18T06:16:22.769Z,4.87
2018-09-18T06:18:51.398Z,5.00
2018-09-18T06:21:19.868Z,4.37
2018-09-18T06:23:48.437Z,5.00
2018-09-18T06:26:17.422Z,4.70
2018-09-18T06:28:46.214Z,4.90
2018-09-18T06:31:14.800Z,4.60
2018-09-18T06:33:43.428Z,4.97
2018-09-18T06:36:11.981Z,4.73
2018-09-18T06:38:40.423Z,4.93
2018-09-18T06:41:09.097Z,4.57
2018-09-18T06:43:37.712Z,4.60
2018-09-18T06:46:06.296Z,5.00
2018-09-18T06:48:35.949Z,4.97
2018-09-18T06:51:05.013Z,4.40
2018-09-18T06:53:33.572Z,4.87
2018-09-18T06:56:03.655Z,4.90
2018-09-18T06:58:32.251Z,4.20
2018-09-18T07:01:00.783Z,4.70
2018-09-18T07:03:29.468Z,4.40
2018-09-18T07:05:58.080Z,4.33
2018-09-18T07:08:26.613Z,4.30
2018-09-18T07:10:55.137Z,4.17
2018-09-18T07:13:23.580Z,4.30
2018-09-18T07:15:52.120Z,4.20
2018-09-18T07:18:20.541Z,4.00
2018-09-18T07:20:49.117Z,4.37
2018-09-18T07:23:17.766Z,4.40
2018-09-18T07:25:46.233Z,4.40
2018-09-18T07:28:15.835Z,4.57
2018-09-18T07:30:44.965Z,4.53
2018-09-18T07:33:14.052Z,4.80
2018-09-18T07:35:42.508Z,4.40
2018-09-18T07:38:10.952Z,4.30
2018-09-18T07:40:39.609Z,3.90
2018-09-18T07:43:08.050Z,4.53
2018-09-18T07:45:36.676Z,3.83
2018-09-18T07:48:05.244Z,4.10
2018-09-18T07:50:33.845Z,3.80
2018-09-18T07:53:02.761Z,3.95
2018-09-18T07:55:31.198Z,3.72
2018-09-18T07:57:59.777Z,3.65
2018-09-18T08:00:28.446Z,3.98
2018-09-18T08:02:56.998Z,3.65
2018-09-18T08:05:26.301Z,3.85
2018-09-18T08:07:54.845Z,3.30
2018-09-18T08:10:24.844Z,4.07
2018-09-18T08:12:53.408Z,4.00
2018-09-18T08:15:21.816Z,4.73
2018-09-18T08:17:50.455Z,3.70
2018-09-18T08:20:19.018Z,4.20
2018-09-18T08:22:47.597Z,4.28
2018-09-18T08:25:16.824Z,4.00
2018-09-18T08:27:45.295Z,3.47
2018-09-18T08:30:13.829Z,4.00
2018-09-18T08:32:42.604Z,3.90
2018-09-18T08:35:10.930Z,3.70
2018-09-18T08:37:39.407Z,4.12
2018-09-18T08:40:08.195Z,4.00
2018-09-18T08:42:36.967Z,4.37
2018-09-18T08:45:05.828Z,4.10
2018-09-18T08:47:34.971Z,4.70
2018-09-18T08:50:03.531Z,4.65
2018-09-18T08:52:32.264Z,5.55
2018-09-18T08:55:00.712Z,4.83
2018-09-18T08:57:29.298Z,4.20
2018-09-18T08:59:57.823Z,4.28
2018-09-18T09:02:26.418Z,3.72
2018-09-18T09:04:54.945Z,4.03
2018-09-18T09:07:23.605Z,4.42
2018-09-18T09:09:52.085Z,3.67
2018-09-18T09:12:21.210Z,3.87
2018-09-18T09:14:49.732Z,4.10
2018-09-18T09:17:18.344Z,3.45
2018-09-18T09:19:46.954Z,3.80
2018-09-18T09:22:16.064Z,3.77
2018-09-18T09:24:44.484Z,3.70
2018-09-18T09:27:12.981Z,3.77
2018-09-18T09:29:41.677Z,3.55
2018-09-18T09:32:13.856Z,3.77
2018-09-18T09:34:42.801Z,3.98
2018-09-18T09:37:11.414Z,3.87
2018-09-18T09:39:39.874Z,3.92
2018-09-18T09:42:08.526Z,4.15
2018-09-18T09:44:37.077Z,4.55
2018-09-18T09:47:05.717Z,4.47
2018-09-18T09:49:34.432Z,3.80
2018-09-18T09:52:02.926Z,4.03
2018-09-18T09:54:31.383Z,4.12
2018-09-18T09:57:00.072Z,4.60
2018-09-18T09:59:29.547Z,4.25
2018-09-18T10:02:03.213Z,4.33
2018-09-18T10:04:32.029Z,4.37
2018-09-18T10:07:00.846Z,4.00
2018-09-18T10:09:29.472Z,4.15
2018-09-18T10:11:57.987Z,4.30
2018-09-18T10:14:26.549Z,4.50
2018-09-18T10:16:55.249Z,4.35
2018-09-18T10:19:23.675Z,4.62
2018-09-18T10:21:52.159Z,4.90
2018-09-18T10:24:20.766Z,4.42
2018-09-18T10:26:49.303Z,4.37
2018-09-18T10:29:17.713Z,4.80
2018-09-18T10:31:46.184Z,4.75
